• Join FlightAware (Why Join?)
  • Login
  • US Flag 
04:51PM EDT


 

Airport Tracker/Info


-or-


 

Live Flight TrackerFlight Track Log ✈ CHH7104 ✈ 16-Sep-2013 ✈ ZYMD / MDG - ZBAA / PEK

Flight Track Log - Related Links

Times and Time Zones

All times are in EDT time to prevent confusion due to time zone crossing. See the CHH7104 flight status page for this flight to view local times or setup timezone preferences in your user account.

Time Position Orientation Groundspeed Altitude Reporting Facility
EDT Latitude Longitude Course Direction KTS MPH feet Rate Location/Type
10:36PM 44.4872 129.4301 250° West  Level Estimated
10:37PM 44.4502 129.2914 250° West  Level Estimated
10:38PM 44.4131 129.1528 249° West  Level Estimated
10:39PM 44.3757 129.0145 249° West  Level Estimated
10:40PM 44.3382 128.8763 249° West  Level Estimated
10:41PM 44.3005 128.7383 249° West  Level Estimated
10:42PM 44.2627 128.6004 249° West  Level Estimated
10:43PM 44.2247 128.4628 249° West  Level Estimated
10:44PM 44.1865 128.3253 249° West  Level Estimated
10:45PM 44.1482 128.1880 249° West  Level Estimated
10:46PM 44.1097 128.0509 249° West  Level Estimated
10:47PM 44.0710 127.9139 249° West  Level Estimated
10:48PM 44.0322 127.7771 248° West  Level Estimated
10:49PM 43.9932 127.6405 248° West  Level Estimated
10:50PM 43.9541 127.5041 248° West  Level Estimated
10:51PM 43.9147 127.3679 248° West  Level Estimated
10:52PM 43.8819 127.2545 248° West  Level Estimated
10:53PM 43.8489 127.1413 248° West  Level Estimated
10:54PM 43.8158 127.0281 248° West  Level Estimated
10:55PM 43.7825 126.9151 248° West  Level Estimated
10:56PM 43.7492 126.8023 248° West  Level Estimated
10:57PM 43.7158 126.6895 248° West  Level Estimated
10:58PM 43.6822 126.5769 248° West  Level Estimated
10:59PM 43.6486 126.4644 248° West  Level Estimated
11:00PM 43.6148 126.3520 247° West  Level Estimated
11:01PM 43.5809 126.2397 247° West  Level Estimated
11:02PM 43.5469 126.1276 247° West  Level Estimated
11:03PM 43.5128 126.0156 247° West  Level Estimated
11:04PM 43.4786 125.9037 247° West  Level Estimated
11:05PM 43.4443 125.7920 247° West  Level Estimated
11:06PM 43.4099 125.6804 247° West  Level Estimated
11:07PM 43.3753 125.5689 247° West  Level Estimated
11:08PM 43.3407 125.4575 247° West  Level Estimated
11:09PM 43.3059 125.3463 247° West  Level Estimated
11:10PM 43.2711 125.2352 247° West  Level Estimated
11:11PM 43.2361 125.1242 247° West  Level Estimated
11:12PM 43.2010 125.0133 247° West  Level Estimated
11:13PM 43.1658 124.9026 246° West  Level Estimated
11:14PM 43.1305 124.7920 246° West  Level Estimated
11:15PM 43.0951 124.6815 246° West  Level Estimated
11:16PM 43.0596 124.5712 246° West  Level Estimated
11:17PM 43.0240 124.4610 246° West  Level Estimated
11:18PM 42.9883 124.3509 246° West  Level Estimated
11:19PM 42.9525 124.2409 246° West  Level Estimated
11:20PM 42.9166 124.1311 246° West  Level Estimated
11:21PM 42.8806 124.0214 246° West  Level Estimated
11:22PM 42.8444 123.9118 246° West  Level Estimated
11:23PM 42.8082 123.8024 246° West  Level Estimated
11:24PM 42.7718 123.6930 246° West  Level Estimated
11:25PM 42.7354 123.5838 246° West  Level Estimated
11:26PM 42.6988 123.4748 246° West  Level Estimated
11:27PM 42.6622 123.3659 245° Southwest  Level Estimated
11:28PM 42.6254 123.2571 245° Southwest  Level Estimated
11:29PM 42.5886 123.1484 245° Southwest  Level Estimated
11:30PM 42.5516 123.0398 245° Southwest  Level Estimated
11:31PM 42.5145 122.9314 245° Southwest  Level Estimated
11:32PM 42.4774 122.8231 245° Southwest  Level Estimated
11:33PM 42.4401 122.7150 245° Southwest  Level Estimated
11:34PM 42.4027 122.6069 245° Southwest  Level Estimated
11:35PM 42.3653 122.4990 245° Southwest  Level Estimated
11:36PM 42.3277 122.3913 245° Southwest  Level Estimated
11:37PM 42.2900 122.2836 245° Southwest  Level Estimated
11:38PM 42.2523 122.1761 245° Southwest  Level Estimated
11:39PM 42.2144 122.0687 245° Southwest  Level Estimated
11:40PM 42.1764 121.9614 244° Southwest  Level Estimated
11:41PM 42.1384 121.8543 244° Southwest  Level Estimated
11:42PM 42.1002 121.7473 244° Southwest  Level Estimated
11:43PM 42.0619 121.6404 244° Southwest  Level Estimated
11:44PM 42.0235 121.5337 244° Southwest  Level Estimated
11:45PM 41.9851 121.4271 244° Southwest  Level Estimated
11:46PM 41.9465 121.3206 244° Southwest  Level Estimated
11:47PM 41.9078 121.2142 244° Southwest  Level Estimated
11:48PM 41.8691 121.1080 244° Southwest  Level Estimated
11:49PM 41.8302 121.0019 244° Southwest  Level Estimated
11:50PM 41.7912 120.8959 244° Southwest  Level Estimated
11:51PM 41.7522 120.7901 244° Southwest  Level Estimated
11:52PM 41.7130 120.6844 244° Southwest  Level Estimated
11:53PM 41.6738 120.5788 244° Southwest  Level Estimated
11:54PM 41.6344 120.4734 243° Southwest  Level Estimated
11:55PM 41.5950 120.3680 243° Southwest  Level Estimated
11:56PM 41.5554 120.2628 243° Southwest  Level Estimated
11:57PM 41.5158 120.1578 243° Southwest  Level Estimated
11:58PM 41.4761 120.0528 243° Southwest  Level Estimated
11:59PM 41.4362 119.9480 243° Southwest  Level Estimated
12:00AM 41.3963 119.8433 243° Southwest  Level Estimated
12:01AM 41.3563 119.7388 243° Southwest  Level Estimated
12:02AM 41.3162 119.6344 243° Southwest  Level Estimated
12:03AM 41.2760 119.5301 243° Southwest  Level Estimated
12:04AM 41.2357 119.4259 243° Southwest  Level Estimated
12:05AM 41.1953 119.3218 243° Southwest  Level Estimated
12:06AM 41.1548 119.2179 243° Southwest  Level Estimated
12:07AM 41.1142 119.1142 243° Southwest  Level Estimated
12:08AM 41.0736 119.0105 243° Southwest  Level Estimated
12:09AM 41.0328 118.9070 242° Southwest  Level Estimated
12:10AM 40.9919 118.8036 242° Southwest  Level Estimated
12:11AM 40.9510 118.7003 242° Southwest  Level Estimated
12:12AM 40.9099 118.5972 242° Southwest  Level Estimated
12:13AM 40.8688 118.4941 242° Southwest  Level Estimated
12:14AM 40.8276 118.3913 242° Southwest  Level Estimated
12:15AM 40.7863 118.2885 242° Southwest  Level Estimated
12:16AM 40.7448 118.1859 242° Southwest  Level Estimated
12:17AM 40.7033 118.0834 242° Southwest  Level Estimated
12:18AM 40.6618 117.9810 242° Southwest  Level Estimated
12:19AM 40.6201 117.8788 242° Southwest  Level Estimated
12:20AM 40.5783 117.7766 242° Southwest  Level Estimated
12:21AM 40.5364 117.6747 242° Southwest  Level Estimated
12:22AM 40.4945 117.5728 242° Southwest  Level Estimated
12:23AM 40.4524 117.4710 242° Southwest  Level Estimated
12:24AM 40.4103 117.3694 241° Southwest  Level Estimated
12:25AM 40.3681 117.2680 241° Southwest  Level Estimated
12:26AM 40.3258 117.1666 241° Southwest  Level Estimated
12:27AM 40.2834 117.0654 241° Southwest  Level Estimated
12:28AM 40.2409 116.9643 241° Southwest  Level Estimated
12:29AM 40.1984 116.8633 241° Southwest  Level Estimated
12:30AM 40.1557 116.7625 241° Southwest  Level Estimated
12:31AM 40.1130 116.6617 241° Southwest  Level Estimated
12:32AM 40.0801 116.5846 241° Southwest  Level Estimated
12:33AM 40.0801 116.5846 288° West  Level Estimated
12:34AM 40.0801 116.5846 288° West  Level Estimated
12:35AM 40.0801 116.5846 288° West  Level Estimated
12:36AM 40.0801 116.5846 288° West  Level Estimated
12:37AM 40.0801 116.5846 288° West  Level Estimated
12:38AM 40.0801 116.5846 288° West  Level Estimated
12:39AM 40.0801 116.5846 288° West  Level Estimated
12:40AM 40.0801 116.5846 288° West  Level Estimated
12:41AM 40.0801 116.5846 288° West  Level Estimated
12:42AM 40.0801 116.5846 288° West  Level Estimated
12:43AM 40.0801 116.5846 288° West  Level Estimated
12:44AM 40.0801 116.5846 288° West  Level Estimated
12:45AM 40.0801 116.5846 288° West  Level Estimated
12:46AM 40.0801 116.5846 288° West  Level Estimated
12:47AM 40.0801 116.5846 288° West  Level Estimated
12:48AM 40.0801 116.5846 288° West  Level Estimated
12:49AM 40.0801 116.5846 288° West  Level Estimated
12:50AM 40.0801 116.5846 288° West  Level Estimated
12:51AM 40.0801 116.5846 288° West  Level Estimated
12:52AM 40.0801 116.5846 288° West  Level Estimated
12:53AM 40.0801 116.5846 288° West  Level Estimated